INFORMACIÓN METAR y TAF
METAR FOR LESO
ADDS - METARS form results

(0545 UTC 20 January 2020)
Data provider http://aviationweather.gov/metar/data/
 
METAR text: LESO 200530Z 04003KT 360V080 9999 FEW023 02/M01 Q1035
Conditions at: LESO (SAN SEBASTIAN/FU, ES) observed 0530 UTC 20 January 2020
Temperature: 2.0°C (36°F)
Dewpoint: -1.0°C (30°F) [RH = 80%]
Pressure (altimeter): 30.56 inches Hg (1035.0 mb)
Winds: from the NE (40 degrees) at 3 MPH (3 knots; 1.5 m/s)
Visibility: 6 or more miles (10+ km)
Ceiling: at least 12,000 feet AGL
Clouds: few clouds at 2300 feet AGL
Weather: no significant weather observed at this time

METAR text: LESO 200500Z 00000KT 9999 FEW023 02/M01 Q1036
Conditions at: LESO (SAN SEBASTIAN/FU, ES) observed 0500 UTC 20 January 2020
Temperature: 2.0°C (36°F)
Dewpoint: -1.0°C (30°F) [RH = 80%]
Pressure (altimeter): 30.59 inches Hg (1036.0 mb)
Winds: calm
Visibility: 6 or more miles (10+ km)
Ceiling: at least 12,000 feet AGL
Clouds: few clouds at 2300 feet AGL
Weather: no significant weather observed at this time

Forecast for: LESO (SAN SEBASTIAN/FU, ES)
Text: TAF LESO 200500Z 2006/2106 05009KT 9999 SCT025 TX08/2014Z TNM00/2007Z
Forecast period: 0600 UTC 20 January 2020 to 0600 UTC 21 January 2020
Forecast type: FROM: standard forecast or significant change
Winds: from the NE (50 degrees) at 10 MPH (9 knots; 4.6 m/s)
Visibility: 6 or more miles 10+ km)
Ceiling: at least 12,000 feet AGL
Clouds: scattered clouds at 2500 feet AGL
Weather: no significant weather forecast for this period
Text: PROB40
Forecast period: 0600 to 2100 UTC 20 January 2020
Forecast type: TEMPORARY: The following changes expected for less than half the time period
Winds: from the ENE (60 degrees) at 17 MPH (15 knots; 7.7 m/s)
gusting to 29 MPH (25 knots; 12.9 m/s)
Visibility: missing
Ceiling: unknown
Clouds: missing
Weather: no significant weather forecast for this period

MAPA DE AEROPUERTO

INFORMACIÓN DE PISTA
Pista 04 Longitud 5755 ft Ancho 148 ft
Elevación 10 ft Umbral desplazado 0 ft Rumbo de pista 39
Pista 22 Longitud 5755 ft Ancho 148 ft
Elevación 15 ft Umbral desplazado 0 ft Rumbo de pista 219

FRECUANCIAS DEL AEROPUERTO
Tipo TWR Nombre SAN SEBAST Frecuencia 119.85 MHZ

RADIO AYUDAS DEL AEROPUERTO
Tipo NDB-DME Nombre San Sebastian Frecuencia 328 KHZ
Tipo VOR-DME Nombre San Sebastian Frecuencia 117900 KHZ